地図

経路データ

SID SEASON NUMBER BASIN SUBBASIN NAME ISO_TIME NATURE LAT LON WMO_WIND WMO_PRES WMO_AGENCY TRACK_TYPE DIST2LAND LANDFALL IFLAG USA_AGENCY USA_ATCF_ID USA_LAT USA_LON USA_RECORD USA_STATUS USA_WIND USA_PRES USA_SSHS USA_R34_NE USA_R34_SE USA_R34_SW USA_R34_NW USA_R50_NE USA_R50_SE USA_R50_SW USA_R50_NW USA_R64_NE USA_R64_SE USA_R64_SW USA_R64_NW USA_POCI USA_ROCI USA_RMW USA_EYE TOKYO_LAT TOKYO_LON TOKYO_GRADE TOKYO_WIND TOKYO_PRES TOKYO_R50_DIR TOKYO_R50_LONG TOKYO_R50_SHORT TOKYO_R30_DIR TOKYO_R30_LONG TOKYO_R30_SHORT TOKYO_LAND CMA_LAT CMA_LON CMA_CAT CMA_WIND CMA_PRES HKO_LAT HKO_LON HKO_CAT HKO_WIND HKO_PRES NEWDELHI_LAT NEWDELHI_LON NEWDELHI_GRADE NEWDELHI_WIND NEWDELHI_PRES NEWDELHI_CI NEWDELHI_DP NEWDELHI_POCI REUNION_LAT REUNION_LON REUNION_TYPE REUNION_WIND REUNION_PRES REUNION_TNUM REUNION_CI REUNION_RMW REUNION_R34_NE REUNION_R34_SE REUNION_R34_SW REUNION_R34_NW REUNION_R50_NE REUNION_R50_SE REUNION_R50_SW REUNION_R50_NW REUNION_R64_NE REUNION_R64_SE REUNION_R64_SW REUNION_R64_NW BOM_LAT BOM_LON BOM_TYPE BOM_WIND BOM_PRES BOM_TNUM BOM_CI BOM_RMW BOM_R34_NE BOM_R34_SE BOM_R34_SW BOM_R34_NW BOM_R50_NE BOM_R50_SE BOM_R50_SW BOM_R50_NW BOM_R64_NE BOM_R64_SE BOM_R64_SW BOM_R64_NW BOM_ROCI BOM_POCI BOM_EYE BOM_POS_METHOD BOM_PRES_METHOD NADI_LAT NADI_LON NADI_CAT NADI_WIND NADI_PRES WELLINGTON_LAT WELLINGTON_LON WELLINGTON_WIND WELLINGTON_PRES DS824_LAT DS824_LON DS824_STAGE DS824_WIND DS824_PRES TD9636_LAT TD9636_LON TD9636_STAGE TD9636_WIND TD9636_PRES TD9635_LAT TD9635_LON TD9635_WIND TD9635_PRES TD9635_ROCI NEUMANN_LAT NEUMANN_LON NEUMANN_CLASS NEUMANN_WIND NEUMANN_PRES MLC_LAT MLC_LON MLC_CLASS MLC_WIND MLC_PRES USA_GUST BOM_GUST BOM_GUST_PER REUNION_GUST REUNION_GUST_PER USA_SEAHGT USA_SEARAD_NE USA_SEARAD_SE USA_SEARAD_SW USA_SEARAD_NW STORM_SPEED STORM_DIR
1936323N10152 1936 65 WP MM NOT_NAMED 1936-11-18 09:00:00 NR 10.4000 151.600 main 1469 1469 __________O___ -1 10.4000 151.600 4 22 332
1936323N10152 1936 65 WP MM NOT_NAMED 1936-11-18 12:00:00 NR 11.3482 151.082 main 1556 1556 __________P___ -1 11.3482 151.082 4 21 332
1936323N10152 1936 65 WP MM NOT_NAMED 1936-11-18 15:00:00 NR 12.2470 150.580 main 1640 1640 __________P___ -1 12.2470 150.580 4 20 331
1936323N10152 1936 65 WP MM NOT_NAMED 1936-11-18 18:00:00 NR 13.0472 150.113 main 1717 1717 __________P___ -1 13.0472 150.113 4 17 329
1936323N10152 1936 65 WP MM NOT_NAMED 1936-11-18 21:00:00 NR 13.7000 149.700 main 1788 1788 __________O___ -1 13.7000 149.700 4 14 327
1936323N10152 1936 65 WP MM NOT_NAMED 1936-11-19 00:00:00 NR 14.1764 149.347 main 1838 1838 __________P___ -1 14.1764 149.347 4 11 320
1936323N10152 1936 65 WP MM NOT_NAMED 1936-11-19 03:00:00 NR 14.5242 148.996 main 1868 1868 __________P___ -1 14.5242 148.996 4 10 310
1936323N10152 1936 65 WP MM NOT_NAMED 1936-11-19 06:00:00 NR 14.8101 148.572 main 1897 1897 __________P___ -1 14.8101 148.572 4 11 301
1936323N10152 1936 65 WP MM NOT_NAMED 1936-11-19 09:00:00 NR 15.1000 148.000 main 1927 1927 __________O___ -1 15.1000 148.000 4 16 297
1936323N10152 1936 65 WP MM NOT_NAMED 1936-11-19 12:00:00 NR 15.5337 147.109 main 1971 1971 __________P___ -1 15.5337 147.109 4 21 295
1936323N10152 1936 65 WP MM NOT_NAMED 1936-11-19 15:00:00 NR 15.9726 146.077 main 2028 2028 __________P___ -1 15.9726 146.077 4 22 293
1936323N10152 1936 65 WP MM NOT_NAMED 1936-11-19 18:00:00 NR 16.3745 145.030 main 2079 2042 __________P___ -1 16.3745 145.030 4 20 291
1936323N10152 1936 65 WP MM NOT_NAMED 1936-11-19 21:00:00 NR 16.7000 144.100 main 2042 1997 __________O___ -1 16.7000 144.100 4 16 289
1936323N10152 1936 65 WP MM NOT_NAMED 1936-11-20 00:00:00 NR 16.8888 143.481 main 1997 1957 __________P___ -1 16.8888 143.481 4 11 286
1936323N10152 1936 65 WP MM NOT_NAMED 1936-11-20 03:00:00 NR 17.0061 142.992 main 1957 1919 __________P___ -1 17.0061 142.992 4 9 283
1936323N10152 1936 65 WP MM NOT_NAMED 1936-11-20 06:00:00 NR 17.0955 142.557 main 1919 1870 __________P___ -1 17.0955 142.557 4 9 283
1936323N10152 1936 65 WP MM NOT_NAMED 1936-11-20 09:00:00 NR 17.2000 142.100 main 1870 1812 __________O___ -1 17.2000 142.100 4 11 281
1936323N10152 1936 65 WP MM NOT_NAMED 1936-11-20 12:00:00 NR 17.3068 141.418 main 1802 1744 __________P___ -1 17.3068 141.418 4 13 280
1936323N10152 1936 65 WP MM NOT_NAMED 1936-11-20 15:00:00 NR 17.4447 140.715 main 1734 1681 __________P___ -1 17.4447 140.715 4 13 285
1936323N10152 1936 65 WP MM NOT_NAMED 1936-11-20 18:00:00 NR 17.6599 140.080 main 1684 1646 __________P___ -1 17.6599 140.080 4 12 298
1936323N10152 1936 65 WP MM NOT_NAMED 1936-11-20 21:00:00 NR 18.0000 139.600 main 1646 1635 __________O___ -1 18.0000 139.600 4 10 317
1936323N10152 1936 65 WP MM NOT_NAMED 1936-11-21 00:00:00 NR 18.4183 139.349 main 1634 1604 __________P___ -1 18.4183 139.349 4 10 342
1936323N10152 1936 65 WP MM NOT_NAMED 1936-11-21 03:00:00 NR 18.9769 139.261 main 1594 1526 __________P___ -1 18.9769 139.261 4 13 358
1936323N10152 1936 65 WP MM NOT_NAMED 1936-11-21 06:00:00 NR 19.6970 139.293 main 1526 1455 __________P___ -1 19.6970 139.293 4 16 5
1936323N10152 1936 65 WP MM NOT_NAMED 1936-11-21 09:00:00 NR 20.6000 139.400 main 1445 1351 __________O___ -1 20.6000 139.400 4 20 3
1936323N10152 1936 65 WP MM NOT_NAMED 1936-11-21 12:00:00 NR 21.7063 139.403 main 1342 1226 __________P___ -1 21.7063 139.403 4 24 2
1936323N10152 1936 65 WP MM NOT_NAMED 1936-11-21 15:00:00 NR 22.9830 139.484 main 1215 1084 __________P___ -1 22.9830 139.484 4 27 6
1936323N10152 1936 65 WP MM NOT_NAMED 1936-11-21 18:00:00 NR 24.3431 139.697 main 1084 960 __________P___ -1 24.3431 139.697 4 28 12
1936323N10152 1936 65 WP MM NOT_NAMED 1936-11-21 21:00:00 NR 25.7000 140.100 main 954 873 __________O___ -1 25.7000 140.100 4 26 19
1936323N10152 1936 65 WP MM NOT_NAMED 1936-11-22 00:00:00 NR 26.8059 140.615 main 868 792 __________P___ -1 26.8059 140.615 4 25 27
1936323N10152 1936 65 WP MM NOT_NAMED 1936-11-22 03:00:00 NR 27.9086 141.345 main 784 692 __________P___ -1 27.9086 141.345 4 28 33
1936323N10152 1936 65 WP MM NOT_NAMED 1936-11-22 06:00:00 NR 29.1071 142.325 main 685 604 __________P___ -1 29.1071 142.325 4 33 37
1936323N10152 1936 65 WP MM NOT_NAMED 1936-11-22 09:00:00 NR 30.5000 143.600 main 600 554 __________O___ -1 30.5000 143.600 4 41 39
1936323N10152 1936 65 WP MM NOT_NAMED 1936-11-22 12:00:00 NR 32.3197 145.353 main 561 554 __________P___ -1 32.3197 145.353 4 50 40
1936323N10152 1936 65 WP MM NOT_NAMED 1936-11-22 15:00:00 NR 34.2989 147.436 main 610 610 __________P___ -1 34.2989 147.436 4 53 42
1936323N10152 1936 65 WP MM NOT_NAMED 1936-11-22 18:00:00 NR 36.2496 149.636 main 752 752 __________P___ -1 36.2496 149.636 4 51 43
1936323N10152 1936 65 WP MM NOT_NAMED 1936-11-22 21:00:00 NR 38.0000 151.700 main 778 749 __________O___ -1 38.0000 151.700 4 44 43
1936323N10152 1936 65 WP MM NOT_NAMED 1936-11-23 00:00:00 NR 39.4404 153.406 main 752 687 __________P___ -1 39.4404 153.406 4 35 42
1936323N10152 1936 65 WP MM NOT_NAMED 1936-11-23 03:00:00 NR 40.6291 154.784 main 692 662 __________P___ -1 40.6291 154.784 4 29 41
1936323N10152 1936 65 WP MM NOT_NAMED 1936-11-23 06:00:00 NR 41.6556 155.942 main 654 647 __________P___ -1 41.6556 155.942 4 26 40
1936323N10152 1936 65 WP MM NOT_NAMED 1936-11-23 09:00:00 NR 42.6000 157.000 main 651 __________O___ -1 42.6000 157.000 4 25 40

デジタル台風データ・検索

IBTrACS Databaseについて

本データベースは、米国NOAAが公開する1842年以降の世界の熱帯低気圧のベストトラックデータアーカイブInternational Best Track Archive for Climate Stewardship (IBTrACS)を、ウェブで閲覧しやすい形式に変換したものです。

最終更新日:2021-12-01